createdAt,value
2023-05-23T00:00:55.022Z,23.68
2023-05-23T00:01:55.283Z,23.69
2023-05-23T00:02:55.340Z,23.70
2023-05-23T00:03:55.297Z,23.71
2023-05-23T00:04:55.257Z,23.71
2023-05-23T00:05:55.290Z,23.72
2023-05-23T00:06:55.334Z,23.72
2023-05-23T00:07:55.406Z,23.72
2023-05-23T00:08:55.461Z,23.72
2023-05-23T00:09:55.502Z,23.72
2023-05-23T00:10:55.681Z,23.72
2023-05-23T00:11:55.574Z,23.72
2023-05-23T00:12:55.604Z,23.72
2023-05-23T00:13:55.617Z,23.71
2023-05-23T00:14:55.670Z,23.71
2023-05-23T00:15:55.686Z,23.71
2023-05-23T00:16:55.778Z,23.72
2023-05-23T00:17:55.864Z,23.72
2023-05-23T00:18:55.934Z,23.71
2023-05-23T00:19:55.980Z,23.70
2023-05-23T00:20:55.948Z,23.71
2023-05-23T00:21:55.960Z,23.71
2023-05-23T00:22:56.002Z,23.71
2023-05-23T00:23:56.013Z,23.71
2023-05-23T00:24:56.077Z,23.70
2023-05-23T00:25:56.155Z,23.70
2023-05-23T00:26:56.339Z,23.70
2023-05-23T00:27:56.277Z,23.70
2023-05-23T00:28:56.356Z,23.70
2023-05-23T00:29:56.354Z,23.70
2023-05-23T00:30:56.458Z,23.71
2023-05-23T00:31:56.504Z,23.70
2023-05-23T00:32:56.599Z,23.69
2023-05-23T00:33:56.644Z,23.69
2023-05-23T00:34:56.723Z,23.69
2023-05-23T00:35:56.782Z,23.69
2023-05-23T00:36:56.837Z,23.69
2023-05-23T00:37:56.914Z,23.69
2023-05-23T00:38:56.991Z,23.69
2023-05-23T00:39:57.031Z,23.69
2023-05-23T00:40:57.103Z,23.68
2023-05-23T00:41:57.176Z,23.69
2023-05-23T00:42:57.319Z,23.69
2023-05-23T00:43:57.231Z,23.69
2023-05-23T00:44:57.266Z,23.69
2023-05-23T00:45:57.309Z,23.69
2023-05-23T00:46:57.423Z,23.69
2023-05-23T00:47:57.421Z,23.69
2023-05-23T00:48:57.456Z,23.69
2023-05-23T00:49:57.553Z,23.68
2023-05-23T00:50:57.539Z,23.69
2023-05-23T00:51:57.568Z,23.68
2023-05-23T00:52:57.648Z,23.68
2023-05-23T00:53:57.717Z,23.69
2023-05-23T00:54:57.794Z,23.68
2023-05-23T00:55:57.828Z,23.69
2023-05-23T00:56:57.879Z,23.67
2023-05-23T00:57:57.949Z,23.68
2023-05-23T00:58:58.149Z,23.68
2023-05-23T00:59:58.096Z,23.67
2023-05-23T01:00:58.153Z,23.67
2023-05-23T01:01:58.324Z,23.67
2023-05-23T01:02:58.335Z,23.67
2023-05-23T01:03:58.382Z,23.67
2023-05-23T01:04:58.392Z,23.67
2023-05-23T01:05:58.427Z,23.67
2023-05-23T01:06:58.490Z,23.67
2023-05-23T01:07:58.536Z,23.67
2023-05-23T01:08:58.598Z,23.67
2023-05-23T01:09:58.647Z,23.67
2023-05-23T01:10:58.693Z,23.66
2023-05-23T01:11:58.676Z,23.66
2023-05-23T01:12:58.679Z,23.67
2023-05-23T01:13:58.738Z,23.67
2023-05-23T01:14:58.934Z,23.66
2023-05-23T01:16:01.883Z,23.67
2023-05-23T01:16:58.872Z,23.66
2023-05-23T01:17:58.942Z,23.66
2023-05-23T01:18:58.871Z,23.67
2023-05-23T01:19:58.857Z,23.66
2023-05-23T01:20:58.848Z,23.66
2023-05-23T01:21:58.845Z,23.66
2023-05-23T01:22:58.853Z,23.66
2023-05-23T01:23:58.842Z,23.66
2023-05-23T01:24:58.833Z,23.66
2023-05-23T01:25:58.839Z,23.65
2023-05-23T01:26:58.894Z,23.66
2023-05-23T01:27:58.971Z,23.66
2023-05-23T01:28:59.029Z,23.65
2023-05-23T01:29:59.053Z,23.66
2023-05-23T01:30:59.173Z,23.65
2023-05-23T01:31:59.241Z,23.65
2023-05-23T01:32:59.304Z,23.66
2023-05-23T01:33:59.217Z,23.65
2023-05-23T01:34:59.284Z,23.65
2023-05-23T01:35:59.324Z,23.66
2023-05-23T01:36:59.418Z,23.65
2023-05-23T01:37:59.472Z,23.65
2023-05-23T01:38:59.550Z,23.66
2023-05-23T01:39:59.600Z,23.65
2023-05-23T01:40:59.661Z,23.65
2023-05-23T01:41:59.741Z,23.65
2023-05-23T01:42:59.774Z,23.66
2023-05-23T01:43:59.829Z,23.65
2023-05-23T01:44:59.847Z,23.65
2023-05-23T01:45:59.948Z,23.65
2023-05-23T01:47:00.131Z,23.66
2023-05-23T01:48:00.017Z,23.66
2023-05-23T01:48:59.973Z,23.65
2023-05-23T01:50:00.024Z,23.65
2023-05-23T01:51:00.061Z,23.64
2023-05-23T01:52:00.078Z,23.64
2023-05-23T01:53:00.088Z,23.65
2023-05-23T01:54:00.096Z,23.65
2023-05-23T01:55:00.175Z,23.64
2023-05-23T01:56:00.200Z,23.65
2023-05-23T01:57:00.251Z,23.64
2023-05-23T01:58:00.283Z,23.65
2023-05-23T01:59:00.318Z,23.64
2023-05-23T02:00:00.364Z,23.64
2023-05-23T02:01:00.449Z,23.63
2023-05-23T02:02:00.504Z,23.63
2023-05-23T02:03:00.762Z,23.64
2023-05-23T02:04:00.565Z,23.64
2023-05-23T02:05:00.587Z,23.64
2023-05-23T02:06:00.651Z,23.64
2023-05-23T02:07:00.678Z,23.64
2023-05-23T02:08:00.753Z,23.64
2023-05-23T02:09:00.825Z,23.63
2023-05-23T02:10:00.883Z,23.63
2023-05-23T02:11:00.929Z,23.63
2023-05-23T02:12:00.976Z,23.63
2023-05-23T02:13:01.061Z,23.63
2023-05-23T02:14:01.121Z,23.63
2023-05-23T02:15:01.185Z,23.63
2023-05-23T02:16:01.252Z,23.63
2023-05-23T02:17:01.359Z,23.63
2023-05-23T02:18:01.397Z,23.63
2023-05-23T02:19:01.579Z,23.62
2023-05-23T02:20:01.534Z,23.63
2023-05-23T02:21:01.545Z,23.62
2023-05-23T02:22:01.605Z,23.63
2023-05-23T02:23:01.639Z,23.63
2023-05-23T02:24:01.672Z,23.62
2023-05-23T02:25:01.718Z,23.62
2023-05-23T02:26:01.812Z,23.62
2023-05-23T02:27:02.396Z,23.62
2023-05-23T02:28:01.794Z,23.62
2023-05-23T02:29:01.801Z,23.62
2023-05-23T02:30:01.912Z,23.61
2023-05-23T02:31:02.017Z,23.62
2023-05-23T02:32:02.002Z,23.62
2023-05-23T02:33:02.098Z,23.61
2023-05-23T02:34:02.039Z,23.61
2023-05-23T02:35:02.236Z,23.61
2023-05-23T02:36:02.187Z,23.61
2023-05-23T02:37:02.229Z,23.60
2023-05-23T02:38:02.279Z,23.61
2023-05-23T02:39:02.257Z,23.61
2023-05-23T02:40:02.294Z,23.60
2023-05-23T02:41:02.338Z,23.60
2023-05-23T02:42:02.340Z,23.61
2023-05-23T02:43:02.404Z,23.60
2023-05-23T02:44:02.461Z,23.60
2023-05-23T02:45:02.538Z,23.60
2023-05-23T02:46:02.603Z,23.59
2023-05-23T02:47:02.566Z,23.59
2023-05-23T02:48:02.591Z,23.59
2023-05-23T02:49:02.566Z,23.58
2023-05-23T02:50:02.567Z,23.59
2023-05-23T02:51:02.706Z,23.58
2023-05-23T02:52:02.656Z,23.59
2023-05-23T02:53:02.700Z,23.58
2023-05-23T02:54:02.722Z,23.59
2023-05-23T02:55:02.815Z,23.58
2023-05-23T02:56:02.837Z,23.58
2023-05-23T02:57:02.859Z,23.59
2023-05-23T02:58:02.903Z,23.59
2023-05-23T02:59:02.900Z,23.58
2023-05-23T03:00:02.931Z,23.58
2023-05-23T03:01:02.977Z,23.58
2023-05-23T03:02:03.013Z,23.59
2023-05-23T03:03:03.149Z,23.58
2023-05-23T03:04:03.135Z,23.58
2023-05-23T03:05:03.088Z,23.58
2023-05-23T03:06:03.135Z,23.58
2023-05-23T03:07:05.333Z,23.58
2023-05-23T03:08:03.906Z,23.58
2023-05-23T03:09:03.189Z,23.58
2023-05-23T03:10:03.214Z,23.58
2023-05-23T03:11:03.179Z,23.58
2023-05-23T03:12:03.193Z,23.58
2023-05-23T03:13:03.196Z,23.58
2023-05-23T03:14:03.204Z,23.57
2023-05-23T03:15:03.215Z,23.57
2023-05-23T03:16:03.249Z,23.57
2023-05-23T03:17:03.206Z,23.57
2023-05-23T03:18:03.270Z,23.57
2023-05-23T03:19:03.235Z,23.57
2023-05-23T03:20:03.203Z,23.58
2023-05-23T03:21:03.214Z,23.58
2023-05-23T03:22:03.910Z,23.57
2023-05-23T03:23:03.355Z,23.57
2023-05-23T03:24:03.241Z,23.57
2023-05-23T03:25:03.229Z,23.57
2023-05-23T03:26:03.228Z,23.57
2023-05-23T03:27:03.281Z,23.57
2023-05-23T03:28:03.352Z,23.57
2023-05-23T03:29:03.383Z,23.57
2023-05-23T03:30:03.391Z,23.57
2023-05-23T03:31:03.452Z,23.56
2023-05-23T03:32:03.462Z,23.57
2023-05-23T03:33:03.591Z,23.57
2023-05-23T03:34:03.509Z,23.57
2023-05-23T03:35:03.591Z,23.57
2023-05-23T03:36:03.666Z,23.57
2023-05-23T03:37:03.713Z,23.56
2023-05-23T03:38:03.787Z,23.56
2023-05-23T03:39:04.004Z,23.56
2023-05-23T03:40:03.933Z,23.56
2023-05-23T03:41:03.980Z,23.56
2023-05-23T03:42:04.017Z,23.56
2023-05-23T03:43:04.090Z,23.57
2023-05-23T03:44:04.138Z,23.56
2023-05-23T03:45:04.179Z,23.56
2023-05-23T03:46:04.283Z,23.56
2023-05-23T03:47:04.331Z,23.56
2023-05-23T03:48:04.508Z,23.56
2023-05-23T03:49:04.486Z,23.56
2023-05-23T03:50:04.563Z,23.56
2023-05-23T03:51:04.630Z,23.56
2023-05-23T03:52:04.669Z,23.56
2023-05-23T03:53:04.726Z,23.56
2023-05-23T03:54:04.794Z,23.56
2023-05-23T03:55:04.997Z,23.56
2023-05-23T03:56:04.915Z,23.56
2023-05-23T03:57:04.952Z,23.56
2023-05-23T03:58:04.959Z,23.56
2023-05-23T03:59:05.057Z,23.56
2023-05-23T04:00:05.124Z,23.56
2023-05-23T04:01:05.170Z,23.56
2023-05-23T04:02:05.244Z,23.55
2023-05-23T04:03:05.460Z,23.55
2023-05-23T04:04:05.332Z,23.56
2023-05-23T04:05:05.294Z,23.56
2023-05-23T04:06:05.341Z,23.55
2023-05-23T04:07:05.382Z,23.56
2023-05-23T04:08:05.412Z,23.56
2023-05-23T04:09:05.408Z,23.56
2023-05-23T04:10:05.412Z,23.56
2023-05-23T04:11:05.542Z,23.56
2023-05-23T04:12:05.442Z,23.55
2023-05-23T04:13:05.470Z,23.56
2023-05-23T04:14:05.494Z,23.55
2023-05-23T04:15:05.519Z,23.56
2023-05-23T04:16:05.595Z,23.55
2023-05-23T04:17:05.570Z,23.55
2023-05-23T04:18:05.682Z,23.55
2023-05-23T04:19:06.102Z,23.55
2023-05-23T04:20:05.694Z,23.55
2023-05-23T04:21:05.706Z,23.55
2023-05-23T04:22:05.830Z,23.55
2023-05-23T04:23:05.842Z,23.54
2023-05-23T04:24:05.825Z,23.54
2023-05-23T04:25:05.861Z,23.55
2023-05-23T04:26:05.901Z,23.55
2023-05-23T04:27:06.056Z,23.54
2023-05-23T04:28:05.961Z,23.55
2023-05-23T04:29:06.241Z,23.55
2023-05-23T04:30:06.018Z,23.55
2023-05-23T04:31:06.093Z,23.55
2023-05-23T04:32:06.082Z,23.55
2023-05-23T04:33:06.213Z,23.54
2023-05-23T04:34:06.179Z,23.55
2023-05-23T04:35:06.208Z,23.55
2023-05-23T04:36:06.270Z,23.54
2023-05-23T04:37:06.301Z,23.54
2023-05-23T04:38:06.345Z,23.55
2023-05-23T04:39:06.386Z,23.55
2023-05-23T04:40:06.400Z,23.54
2023-05-23T04:41:06.428Z,23.54
2023-05-23T04:42:06.446Z,23.55
2023-05-23T04:43:06.604Z,23.54
2023-05-23T04:44:06.488Z,23.54
2023-05-23T04:45:06.516Z,23.54
2023-05-23T04:46:06.515Z,23.54
2023-05-23T04:47:06.689Z,23.54
2023-05-23T04:48:06.685Z,23.54
2023-05-23T04:49:06.658Z,23.54
2023-05-23T04:50:06.669Z,23.54
2023-05-23T04:51:06.697Z,23.54
2023-05-23T04:52:06.738Z,23.53
2023-05-23T04:53:06.772Z,23.54
2023-05-23T04:54:06.807Z,23.54
2023-05-23T04:55:06.844Z,23.54
2023-05-23T04:56:06.882Z,23.54
2023-05-23T04:57:06.912Z,23.54
2023-05-23T04:58:06.972Z,23.53
2023-05-23T04:59:07.158Z,23.53
2023-05-23T05:00:07.056Z,23.54
2023-05-23T05:01:07.118Z,23.53
2023-05-23T05:02:07.100Z,23.53
2023-05-23T05:03:07.182Z,23.53
2023-05-23T05:04:07.245Z,23.53
2023-05-23T05:05:07.256Z,23.53
2023-05-23T05:06:07.236Z,23.53
2023-05-23T05:07:07.246Z,23.53
2023-05-23T05:08:07.250Z,23.54
2023-05-23T05:09:07.265Z,23.53
2023-05-23T05:10:07.332Z,23.53
2023-05-23T05:11:07.319Z,23.53
2023-05-23T05:12:07.311Z,23.52
2023-05-23T05:13:07.342Z,23.53
2023-05-23T05:14:07.354Z,23.53
2023-05-23T05:15:07.579Z,23.53
2023-05-23T05:16:07.420Z,23.53
2023-05-23T05:17:07.551Z,23.52
2023-05-23T05:18:07.566Z,23.52
2023-05-23T05:19:07.596Z,23.52
2023-05-23T05:20:07.966Z,23.52
2023-05-23T05:21:07.666Z,23.52
2023-05-23T05:22:07.696Z,23.52
2023-05-23T05:23:07.755Z,23.52
2023-05-23T05:24:07.810Z,23.52
2023-05-23T05:25:07.801Z,23.53
2023-05-23T05:26:07.859Z,23.53
2023-05-23T05:27:07.873Z,23.53
2023-05-23T05:28:07.901Z,23.54
2023-05-23T05:29:07.971Z,23.54
2023-05-23T05:30:08.036Z,23.54
2023-05-23T05:31:08.204Z,23.55
2023-05-23T05:32:08.003Z,23.55
2023-05-23T05:33:08.532Z,23.55
2023-05-23T05:34:08.036Z,23.54
2023-05-23T05:35:08.090Z,23.55
2023-05-23T05:36:08.147Z,23.55
2023-05-23T05:37:08.132Z,23.55
2023-05-23T05:38:08.166Z,23.55
2023-05-23T05:39:08.184Z,23.56
2023-05-23T05:40:08.222Z,23.56
2023-05-23T05:41:09.426Z,23.56
2023-05-23T05:42:08.358Z,23.56
2023-05-23T05:43:08.421Z,23.56
2023-05-23T05:44:08.463Z,23.57
2023-05-23T05:45:08.523Z,23.56
2023-05-23T05:46:08.557Z,23.57
2023-05-23T05:47:08.685Z,23.58
2023-05-23T05:48:08.708Z,23.58
2023-05-23T05:49:10.247Z,23.58
2023-05-23T05:50:08.711Z,23.58
2023-05-23T05:51:09.715Z,23.59
2023-05-23T05:52:08.789Z,23.59
2023-05-23T05:53:08.724Z,23.59
2023-05-23T05:54:09.007Z,23.61
2023-05-23T05:56:09.746Z,23.60
2023-05-23T05:58:16.183Z,23.63
2023-05-23T05:59:09.258Z,23.64
2023-05-23T06:00:08.748Z,23.67
2023-05-23T06:01:08.831Z,23.69
2023-05-23T06:02:09.108Z,23.72
2023-05-23T06:03:10.011Z,23.74
2023-05-23T06:05:08.828Z,23.77
2023-05-23T06:06:08.768Z,23.79
2023-05-23T06:07:09.044Z,23.81
2023-05-23T06:08:09.084Z,23.83
2023-05-23T06:09:10.580Z,23.87
2023-05-23T06:10:09.554Z,23.88
2023-05-23T06:11:09.530Z,23.89
2023-05-23T06:12:09.096Z,23.90
2023-05-23T06:13:08.821Z,23.90
2023-05-23T06:14:09.424Z,23.90
2023-05-23T06:15:09.442Z,23.89
2023-05-23T06:16:09.299Z,23.88
2023-05-23T06:17:10.179Z,23.88
2023-05-23T06:18:09.455Z,23.87
2023-05-23T06:19:09.460Z,23.85
2023-05-23T06:20:09.305Z,23.84
2023-05-23T06:21:09.491Z,23.84
2023-05-23T06:22:09.213Z,23.83
2023-05-23T06:23:09.765Z,23.84
2023-05-23T06:24:09.112Z,23.84
2023-05-23T06:25:09.927Z,23.84
2023-05-23T06:26:09.708Z,23.84
2023-05-23T06:27:09.750Z,23.84
2023-05-23T06:28:09.838Z,23.85
2023-05-23T06:29:10.118Z,23.86
2023-05-23T06:30:10.041Z,23.86
2023-05-23T06:31:09.591Z,23.86
2023-05-23T06:32:10.241Z,23.88
2023-05-23T06:33:10.070Z,23.89
2023-05-23T06:34:10.148Z,23.89
2023-05-23T06:35:10.501Z,23.90
2023-05-23T06:36:10.333Z,23.91
2023-05-23T06:37:10.896Z,23.92
2023-05-23T06:38:10.614Z,23.94
2023-05-23T06:39:10.647Z,23.94
2023-05-23T06:40:11.053Z,23.96
2023-05-23T06:41:11.332Z,23.95
2023-05-23T06:42:10.825Z,23.96
2023-05-23T06:44:10.555Z,23.97
2023-05-23T06:45:11.417Z,23.98
2023-05-23T06:46:14.111Z,23.95
2023-05-23T06:47:17.928Z,23.89
2023-05-23T06:48:17.959Z,23.81
2023-05-23T06:49:15.187Z,23.76
2023-05-23T06:50:18.493Z,23.72
2023-05-23T06:51:10.663Z,23.70
2023-05-23T06:52:11.626Z,23.69
2023-05-23T06:53:10.845Z,23.67
2023-05-23T06:54:10.536Z,23.61
2023-05-23T06:55:10.520Z,23.54
2023-05-23T06:56:10.876Z,23.47
2023-05-23T06:57:10.811Z,23.41
2023-05-23T06:58:11.197Z,23.36
2023-05-23T06:59:10.939Z,23.34
2023-05-23T07:00:10.393Z,23.32
2023-05-23T07:01:10.989Z,23.30
2023-05-23T07:02:11.025Z,23.31
2023-05-23T07:03:11.563Z,23.29
2023-05-23T07:04:10.566Z,23.26
2023-05-23T07:05:11.687Z,23.25
2023-05-23T07:06:11.289Z,23.25
2023-05-23T07:07:11.016Z,23.27
2023-05-23T07:08:11.562Z,23.28
2023-05-23T07:09:11.090Z,23.30
2023-05-23T07:10:11.017Z,23.34
2023-05-23T07:11:11.147Z,23.36
2023-05-23T07:12:11.205Z,23.37
2023-05-23T07:13:11.457Z,23.40
2023-05-23T07:14:11.153Z,23.41
2023-05-23T07:15:11.069Z,23.43
2023-05-23T07:16:10.988Z,23.44
2023-05-23T07:17:11.158Z,23.45
2023-05-23T07:18:11.029Z,23.46
2023-05-23T07:19:11.116Z,23.48
2023-05-23T07:20:11.514Z,23.48
2023-05-23T07:21:11.098Z,23.49
2023-05-23T07:22:11.661Z,23.50
2023-05-23T07:23:11.143Z,23.50
2023-05-23T07:24:11.128Z,23.50
2023-05-23T07:25:11.158Z,23.50
2023-05-23T07:26:11.167Z,23.50
2023-05-23T07:27:11.182Z,23.49
2023-05-23T07:28:11.198Z,23.49
2023-05-23T07:29:11.213Z,23.49
2023-05-23T07:30:11.511Z,23.49
2023-05-23T07:31:11.278Z,23.48
2023-05-23T07:32:11.342Z,23.47
2023-05-23T07:33:11.561Z,23.46
2023-05-23T07:34:11.303Z,23.47
2023-05-23T07:35:11.517Z,23.46
2023-05-23T07:36:11.330Z,23.46
2023-05-23T07:38:11.383Z,23.44
2023-05-23T07:41:26.965Z,23.47
2023-05-23T07:42:12.538Z,23.48
2023-05-23T07:43:11.488Z,23.50
2023-05-23T07:44:12.421Z,23.50
2023-05-23T07:45:12.530Z,23.50
2023-05-23T07:47:11.376Z,23.54
2023-05-23T07:48:12.373Z,23.57
2023-05-23T07:49:14.576Z,23.60
2023-05-23T07:50:11.521Z,23.62
2023-05-23T07:51:11.383Z,23.65
2023-05-23T07:52:11.422Z,23.68
2023-05-23T07:53:11.397Z,23.69
2023-05-23T07:54:11.395Z,23.72
2023-05-23T07:55:11.533Z,23.75
2023-05-23T07:56:11.354Z,23.76
2023-05-23T07:57:12.358Z,23.79
2023-05-23T07:58:11.365Z,23.81
2023-05-23T07:59:11.355Z,23.83
2023-05-23T08:00:14.728Z,23.85
2023-05-23T08:01:11.359Z,23.87
2023-05-23T08:02:11.423Z,23.89
2023-05-23T08:03:12.152Z,23.91
2023-05-23T08:04:18.776Z,23.92
2023-05-23T08:05:11.544Z,23.93
2023-05-23T08:06:11.529Z,23.94
2023-05-23T08:07:11.378Z,23.95
2023-05-23T08:08:11.370Z,23.96
2023-05-23T08:09:11.368Z,23.97
2023-05-23T08:10:14.788Z,23.99
2023-05-23T08:11:14.592Z,24.01
2023-05-23T08:12:11.367Z,24.03
2023-05-23T08:13:11.359Z,24.06
2023-05-23T08:14:11.344Z,24.09
2023-05-23T08:15:11.547Z,24.12
2023-05-23T08:16:11.411Z,24.15
2023-05-23T08:17:11.507Z,24.18
2023-05-23T08:18:11.424Z,24.20
2023-05-23T08:19:11.542Z,24.22
2023-05-23T08:20:14.764Z,24.24
2023-05-23T08:21:11.322Z,24.28
2023-05-23T08:22:11.313Z,24.29
2023-05-23T08:23:12.317Z,24.30
2023-05-23T08:24:14.042Z,24.33
2023-05-23T08:25:11.326Z,24.35
2023-05-23T08:26:11.319Z,24.36
2023-05-23T08:27:12.308Z,24.39
2023-05-23T08:28:12.279Z,24.41
2023-05-23T08:29:11.292Z,24.42
2023-05-23T08:30:11.557Z,24.44
2023-05-23T08:31:11.293Z,24.45
2023-05-23T08:32:13.555Z,24.47
2023-05-23T08:33:11.362Z,24.49
2023-05-23T08:34:11.314Z,24.51
2023-05-23T08:35:11.556Z,24.50
2023-05-23T08:36:11.343Z,24.50
2023-05-23T08:37:14.518Z,24.51
2023-05-23T08:38:11.354Z,24.51
2023-05-23T08:39:13.272Z,24.51
2023-05-23T08:40:11.554Z,24.52
2023-05-23T08:41:11.325Z,24.52
2023-05-23T08:42:12.410Z,24.51
2023-05-23T08:43:11.296Z,24.52
2023-05-23T08:44:11.309Z,24.51
2023-05-23T08:45:11.550Z,24.51
2023-05-23T08:46:11.394Z,24.51
2023-05-23T08:47:11.391Z,24.52
2023-05-23T08:48:11.281Z,24.52
2023-05-23T08:49:26.937Z,24.52
2023-05-23T08:50:21.150Z,24.53
2023-05-23T08:51:12.275Z,24.53
2023-05-23T08:52:11.264Z,24.54
2023-05-23T08:53:12.254Z,24.55
2023-05-23T08:54:11.248Z,24.56
2023-05-23T08:55:12.221Z,24.58
2023-05-23T08:56:11.279Z,24.58
2023-05-23T08:57:11.261Z,24.59
2023-05-23T08:58:11.271Z,24.59
2023-05-23T08:59:11.254Z,24.59
2023-05-23T09:00:11.561Z,24.60
2023-05-23T09:01:11.265Z,24.60
2023-05-23T09:02:11.219Z,24.61
2023-05-23T09:03:11.246Z,24.61
2023-05-23T09:04:11.230Z,24.63
2023-05-23T09:05:11.289Z,24.62
2023-05-23T09:06:11.260Z,24.63
2023-05-23T09:07:11.560Z,24.64
2023-05-23T09:08:11.264Z,24.65
2023-05-23T09:09:11.233Z,24.65
2023-05-23T09:10:11.565Z,24.66
2023-05-23T09:11:11.165Z,24.65
2023-05-23T09:12:11.164Z,24.68
2023-05-23T09:13:11.135Z,24.69
2023-05-23T09:14:11.160Z,24.71
2023-05-23T09:15:11.557Z,24.71
2023-05-23T09:16:11.201Z,24.72
2023-05-23T09:17:11.121Z,24.72
2023-05-23T09:18:11.125Z,24.73
2023-05-23T09:19:11.191Z,24.73
2023-05-23T09:20:11.563Z,24.75
2023-05-23T09:21:11.111Z,24.76
2023-05-23T09:22:11.111Z,24.76
2023-05-23T09:23:11.117Z,24.77
2023-05-23T09:24:11.130Z,24.77
2023-05-23T09:25:11.577Z,24.78
2023-05-23T09:26:12.069Z,24.79
2023-05-23T09:27:11.159Z,24.79
2023-05-23T09:28:11.161Z,24.79
2023-05-23T09:29:12.201Z,24.77
2023-05-23T09:30:14.827Z,24.76
2023-05-23T09:31:14.374Z,24.75
2023-05-23T09:33:11.202Z,24.71
2023-05-23T09:34:11.172Z,24.69
2023-05-23T09:35:11.586Z,24.67
2023-05-23T09:36:11.160Z,24.66
2023-05-23T09:37:11.137Z,24.64
2023-05-23T09:38:11.605Z,24.64
2023-05-23T09:39:11.137Z,24.62
2023-05-23T09:40:11.651Z,24.61
2023-05-23T09:41:11.163Z,24.61
2023-05-23T09:42:11.166Z,24.60
2023-05-23T09:43:14.392Z,24.59
2023-05-23T09:44:12.151Z,24.58
2023-05-23T09:45:11.579Z,24.58
2023-05-23T09:46:11.602Z,24.58
2023-05-23T09:47:11.240Z,24.57
2023-05-23T09:48:11.296Z,24.57
2023-05-23T09:49:11.188Z,24.56
2023-05-23T09:50:18.589Z,24.55
2023-05-23T09:51:11.195Z,24.55
2023-05-23T09:52:11.225Z,24.55
2023-05-23T09:53:11.211Z,24.56
2023-05-23T09:54:11.196Z,24.55
2023-05-23T09:55:11.193Z,24.56
2023-05-23T09:56:11.618Z,24.56
2023-05-23T09:57:11.239Z,24.57
2023-05-23T09:58:12.197Z,24.55
2023-05-23T09:59:11.193Z,24.55
2023-05-23T10:00:11.220Z,24.56
2023-05-23T10:01:11.736Z,24.56
2023-05-23T10:02:11.217Z,24.57
2023-05-23T10:03:11.301Z,24.57
2023-05-23T10:04:11.247Z,24.58
2023-05-23T10:05:11.205Z,24.59
2023-05-23T10:06:11.643Z,24.60
2023-05-23T10:07:11.258Z,24.60
2023-05-23T10:08:11.168Z,24.61
2023-05-23T10:09:11.177Z,24.63
2023-05-23T10:10:12.627Z,24.64
2023-05-23T10:11:11.607Z,24.67
2023-05-23T10:12:12.586Z,24.69
2023-05-23T10:13:11.185Z,24.72
2023-05-23T10:14:12.166Z,24.72
2023-05-23T10:15:12.207Z,24.74
2023-05-23T10:16:11.593Z,24.74
2023-05-23T10:17:11.390Z,24.75
2023-05-23T10:18:11.630Z,24.75
2023-05-23T10:19:11.268Z,24.78
2023-05-23T10:20:11.234Z,24.78
2023-05-23T10:21:11.251Z,24.79
2023-05-23T10:22:11.629Z,24.79
2023-05-23T10:23:11.293Z,24.80
2023-05-23T10:24:11.257Z,24.79
2023-05-23T10:25:12.593Z,24.81
2023-05-23T10:26:11.270Z,24.80
2023-05-23T10:27:11.598Z,24.80
2023-05-23T10:28:11.624Z,24.79
2023-05-23T10:29:11.290Z,24.77
2023-05-23T10:30:11.319Z,24.75
2023-05-23T10:31:11.356Z,24.72
2023-05-23T10:32:11.358Z,24.71
2023-05-23T10:33:11.619Z,24.72
2023-05-23T10:34:11.451Z,24.75
2023-05-23T10:35:11.594Z,24.77
2023-05-23T10:36:11.397Z,24.80
2023-05-23T10:37:11.601Z,24.83
2023-05-23T10:38:11.380Z,24.86
2023-05-23T10:39:11.436Z,24.89
2023-05-23T10:40:11.397Z,24.92
2023-05-23T10:41:11.392Z,24.94
2023-05-23T10:42:11.456Z,24.95
2023-05-23T10:43:11.458Z,24.97
2023-05-23T10:44:11.413Z,24.98
2023-05-23T10:45:11.612Z,24.99
2023-05-23T10:46:11.559Z,25.00
2023-05-23T10:47:11.444Z,25.02
2023-05-23T10:48:14.760Z,25.04
2023-05-23T10:49:11.441Z,25.05
2023-05-23T10:50:11.618Z,25.07
2023-05-23T10:51:11.621Z,25.08
2023-05-23T10:52:11.438Z,25.10
2023-05-23T10:53:11.449Z,25.12
2023-05-23T10:54:11.473Z,25.14
2023-05-23T10:55:11.391Z,25.15
2023-05-23T10:56:11.605Z,25.17
2023-05-23T10:57:11.343Z,25.19
2023-05-23T10:58:11.329Z,25.19
2023-05-23T10:59:11.313Z,25.20
2023-05-23T11:00:11.607Z,25.22
2023-05-23T11:01:11.290Z,25.23
2023-05-23T11:02:11.353Z,25.24
2023-05-23T11:03:11.296Z,25.24
2023-05-23T11:04:11.281Z,25.22
2023-05-23T11:05:11.604Z,25.20
2023-05-23T11:06:11.325Z,25.18
2023-05-23T11:07:11.225Z,25.16
2023-05-23T11:08:11.623Z,25.14
2023-05-23T11:09:11.335Z,25.12
2023-05-23T11:10:11.632Z,25.10
2023-05-23T11:11:11.400Z,25.10
2023-05-23T11:12:11.462Z,25.09
2023-05-23T11:13:11.604Z,25.08
2023-05-23T11:14:11.479Z,25.08
2023-05-23T11:15:11.606Z,25.08
2023-05-23T11:16:12.091Z,25.06
2023-05-23T11:17:12.356Z,25.06
2023-05-23T11:18:11.650Z,25.04
2023-05-23T11:19:12.167Z,25.04
2023-05-23T11:20:12.120Z,25.03
2023-05-23T11:21:11.781Z,25.01
2023-05-23T11:22:13.629Z,25.00
2023-05-23T11:23:11.773Z,24.99
2023-05-23T11:24:11.773Z,24.99
2023-05-23T11:25:12.161Z,24.99
2023-05-23T11:26:11.731Z,24.99
2023-05-23T11:27:11.838Z,25.01
2023-05-23T11:28:13.674Z,25.00
2023-05-23T11:29:11.673Z,24.99
2023-05-23T11:30:12.217Z,24.99
2023-05-23T11:31:11.657Z,25.00
2023-05-23T11:32:16.853Z,25.00
2023-05-23T11:33:11.666Z,25.00
2023-05-23T11:34:11.606Z,24.99
2023-05-23T11:35:11.769Z,24.99
2023-05-23T11:36:11.619Z,25.00
2023-05-23T11:37:11.658Z,25.01
2023-05-23T11:38:11.614Z,24.99
2023-05-23T11:39:11.577Z,24.99
2023-05-23T11:40:11.625Z,24.98
2023-05-23T11:41:11.564Z,24.99
2023-05-23T11:42:11.551Z,25.01
2023-05-23T11:43:11.561Z,25.02
2023-05-23T11:44:12.544Z,25.04
2023-05-23T11:45:11.624Z,25.06
2023-05-23T11:46:11.552Z,25.07
2023-05-23T11:47:11.567Z,25.09
2023-05-23T11:48:11.540Z,25.10
2023-05-23T11:49:11.535Z,25.11
2023-05-23T11:50:11.715Z,25.11
2023-05-23T11:51:11.549Z,25.11
2023-05-23T11:52:12.555Z,25.12
2023-05-23T11:53:11.712Z,25.13
2023-05-23T11:54:12.181Z,25.13
2023-05-23T11:55:11.748Z,25.12
2023-05-23T11:56:11.794Z,25.11
2023-05-23T11:57:11.806Z,25.10
2023-05-23T11:58:11.845Z,25.09
2023-05-23T11:59:12.226Z,25.08
2023-05-23T12:00:13.136Z,25.07
2023-05-23T12:01:11.965Z,25.05
2023-05-23T12:02:12.033Z,25.04
2023-05-23T12:03:12.194Z,25.04
2023-05-23T12:04:12.163Z,25.03
2023-05-23T12:05:12.146Z,25.02
2023-05-23T12:06:14.268Z,25.02
2023-05-23T12:07:12.173Z,25.01
2023-05-23T12:08:12.132Z,25.02
2023-05-23T12:09:12.118Z,25.01
2023-05-23T12:10:12.165Z,25.02
2023-05-23T12:11:12.100Z,25.02
2023-05-23T12:12:12.098Z,25.02
2023-05-23T12:13:12.100Z,25.01
2023-05-23T12:14:12.099Z,25.02
2023-05-23T12:15:12.138Z,25.01
2023-05-23T12:16:12.117Z,25.02
2023-05-23T12:17:12.133Z,25.02
2023-05-23T12:18:12.091Z,25.03
2023-05-23T12:19:12.116Z,25.03
2023-05-23T12:20:12.150Z,25.03
2023-05-23T12:21:15.301Z,25.03
2023-05-23T12:22:11.994Z,25.03
2023-05-23T12:23:15.218Z,25.03
2023-05-23T12:24:11.988Z,25.03
2023-05-23T12:25:12.153Z,25.02
2023-05-23T12:26:11.985Z,25.03
2023-05-23T12:27:11.947Z,25.02
2023-05-23T12:28:12.363Z,25.02
2023-05-23T12:29:11.922Z,25.03
2023-05-23T12:30:12.165Z,25.03
2023-05-23T12:31:11.948Z,25.03
2023-05-23T12:32:11.894Z,25.03
2023-05-23T12:33:11.883Z,25.03
2023-05-23T12:34:13.157Z,25.03
2023-05-23T12:35:15.053Z,25.03
2023-05-23T12:36:11.906Z,25.03
2023-05-23T12:37:19.850Z,25.04
2023-05-23T12:38:11.817Z,25.05
2023-05-23T12:39:11.805Z,25.06
2023-05-23T12:40:11.786Z,25.07
2023-05-23T12:41:12.153Z,25.08
2023-05-23T12:42:11.804Z,25.09
2023-05-23T12:43:11.746Z,25.08
2023-05-23T12:44:11.729Z,25.09
2023-05-23T12:45:11.736Z,25.08
2023-05-23T12:46:12.172Z,25.09
2023-05-23T12:47:11.914Z,25.08
2023-05-23T12:48:11.793Z,25.08
2023-05-23T12:49:11.707Z,25.09
2023-05-23T12:50:12.174Z,25.08
2023-05-23T12:51:11.689Z,25.08
2023-05-23T12:52:11.702Z,25.07
2023-05-23T12:53:11.683Z,25.07
2023-05-23T12:54:12.069Z,25.08
2023-05-23T12:55:14.887Z,25.07
2023-05-23T12:56:19.054Z,25.06
2023-05-23T12:57:11.715Z,25.04
2023-05-23T12:58:11.659Z,25.05
2023-05-23T12:59:12.640Z,25.04
2023-05-23T13:00:11.720Z,25.03
2023-05-23T13:01:11.762Z,25.02
2023-05-23T13:02:11.663Z,24.99